Terminal Aerodrome Forecast
Issued by NWS

Home | Current Version | Previous Version | Graphics & Text | Print | Product List | Glossary On
Versions: 1 2 3 4 5 6 7 8 9 10 11 12 13 14 15 16
000
FTUS43 KBIS 241700
TAFJMS
TAF
KJMS 241735Z 2418/2518 14011KT P6SM SCT100
     FM250200 08008KT P6SM BKN100
     FM250800 05008KT P6SM BKN003 OVC008
     FM251600 08008KT P6SM BKN008 OVC012=

USA.gov is the U.S. government's official web portal to all federal, state and local government web resources and services.